createdAt,value
2023-04-01T00:00:58.574Z,99526.31
2023-04-01T00:03:27.584Z,99522.94
2023-04-01T00:05:59.295Z,99522.69
2023-04-01T00:08:26.306Z,99515.41
2023-04-01T00:10:53.745Z,99523.97
2023-04-01T00:13:21.288Z,99519.69
2023-04-01T00:15:48.778Z,99517.69
2023-04-01T00:18:15.766Z,99523.25
2023-04-01T00:20:47.797Z,99525.78
2023-04-01T00:23:15.605Z,99525.13
2023-04-01T00:25:42.405Z,99528.31
2023-04-01T00:28:09.080Z,99520.03
2023-04-01T00:30:36.812Z,99521.69
2023-04-01T00:33:04.424Z,99524.69
2023-04-01T00:35:31.190Z,99519.34
2023-04-01T00:37:58.239Z,99521.50
2023-04-01T00:40:27.164Z,99521.69
2023-04-01T00:42:54.078Z,99522.31
2023-04-01T00:45:36.070Z,99520.03
2023-04-01T00:48:08.258Z,99519.03
2023-04-01T00:50:36.576Z,99522.22
2023-04-01T00:53:04.263Z,99520.13
2023-04-01T00:55:35.390Z,99523.59
2023-04-01T00:58:04.538Z,99517.66
2023-04-01T01:00:32.392Z,99521.94
2023-04-01T01:02:58.908Z,99520.13
2023-04-01T01:05:49.627Z,99527.75
2023-04-01T01:08:38.508Z,99524.13
2023-04-01T01:11:09.132Z,99520.81
2023-04-01T01:13:46.971Z,99531.38
2023-04-01T01:16:24.418Z,99520.47
2023-04-01T01:18:51.030Z,99525.13
2023-04-01T01:21:44.805Z,99521.31
2023-04-01T01:24:43.849Z,99522.94
2023-04-01T01:27:12.848Z,99531.69
2023-04-01T01:30:01.078Z,99528.66
2023-04-01T01:32:54.531Z,99527.38
2023-04-01T01:35:34.239Z,99522.50
2023-04-01T01:38:11.865Z,99531.38
2023-04-01T01:40:43.293Z,99529.75
2023-04-01T01:43:14.581Z,99532.56
2023-04-01T01:45:45.870Z,99536.19
2023-04-01T01:48:13.114Z,99529.75
2023-04-01T01:50:42.072Z,99537.03
2023-04-01T01:53:12.244Z,99532.22
2023-04-01T01:55:42.014Z,99542.94
2023-04-01T01:58:18.767Z,99544.63
2023-04-01T02:00:50.434Z,99540.47
2023-04-01T02:03:18.609Z,99546.41
2023-04-01T02:05:45.492Z,99547.94
2023-04-01T02:08:17.872Z,99543.44
2023-04-01T02:10:54.248Z,99543.00
2023-04-01T02:13:45.347Z,99537.72
2023-04-01T02:16:17.074Z,99553.53
2023-04-01T02:18:46.554Z,99548.81
2023-04-01T02:21:14.392Z,99548.44
2023-04-01T02:23:41.486Z,99543.53
2023-04-01T02:26:10.713Z,99546.34
2023-04-01T02:28:39.599Z,99550.63
2023-04-01T02:31:07.231Z,99542.41
2023-04-01T02:33:33.927Z,99544.25
2023-04-01T02:36:00.818Z,99545.06
2023-04-01T02:38:27.483Z,99545.72
2023-04-01T02:41:02.064Z,99546.50
2023-04-01T02:43:29.031Z,99553.13
2023-04-01T02:45:56.271Z,99556.59
2023-04-01T02:48:23.338Z,99557.44
2023-04-01T02:50:50.415Z,99560.25
2023-04-01T02:53:17.422Z,99567.97
2023-04-01T02:55:43.944Z,99560.19
2023-04-01T02:58:10.553Z,99567.44
2023-04-01T03:00:37.397Z,99565.97
2023-04-01T03:03:04.729Z,99571.59
2023-04-01T03:05:31.696Z,99575.69
2023-04-01T03:07:58.625Z,99573.53
2023-04-01T03:10:25.305Z,99574.06
2023-04-01T03:12:52.104Z,99572.41
2023-04-01T03:15:18.550Z,99576.84
2023-04-01T03:17:45.572Z,99573.34
2023-04-01T03:20:12.979Z,99582.44
2023-04-01T03:22:42.837Z,99577.34
2023-04-01T03:25:11.501Z,99571.41
2023-04-01T03:27:39.034Z,99578.53
2023-04-01T03:30:07.635Z,99583.97
2023-04-01T03:32:40.875Z,99578.69
2023-04-01T03:35:07.945Z,99584.59
2023-04-01T03:37:34.783Z,99586.78
2023-04-01T03:40:01.630Z,99589.44
2023-04-01T03:42:28.341Z,99585.63
2023-04-01T03:44:54.828Z,99593.53
2023-04-01T03:47:21.649Z,99595.50
2023-04-01T03:49:48.147Z,99598.63
2023-04-01T03:52:14.732Z,99598.81
2023-04-01T03:54:41.133Z,99603.25
2023-04-01T03:57:07.902Z,99603.06
2023-04-01T03:59:35.137Z,99610.97
2023-04-01T04:02:01.979Z,99609.97
2023-04-01T04:04:29.047Z,99608.34
2023-04-01T04:06:56.205Z,99614.63
2023-04-01T04:09:23.892Z,99609.88
2023-04-01T04:11:51.070Z,99612.34
2023-04-01T04:14:18.094Z,99622.34
2023-04-01T04:16:46.046Z,99616.25
2023-04-01T04:19:12.939Z,99623.00
2023-04-01T04:21:41.479Z,99620.88
2023-04-01T04:24:08.092Z,99622.22
2023-04-01T04:26:53.112Z,99617.94
2023-04-01T04:29:19.619Z,99629.16
2023-04-01T04:31:46.763Z,99627.19
2023-04-01T04:34:13.270Z,99628.81
2023-04-01T04:36:39.798Z,99633.75
2023-04-01T04:39:06.403Z,99633.75
2023-04-01T04:41:36.603Z,99630.13
2023-04-01T04:44:05.717Z,99631.78
2023-04-01T04:46:33.072Z,99646.09
2023-04-01T04:49:09.563Z,99644.97
2023-04-01T04:51:36.924Z,99643.31
2023-04-01T04:54:04.510Z,99646.09
2023-04-01T04:56:49.002Z,99643.31
2023-04-01T04:59:15.572Z,99655.50
2023-04-01T05:01:51.889Z,99656.97
2023-04-01T05:04:18.415Z,99657.31
2023-04-01T05:06:46.047Z,99663.25
2023-04-01T05:09:12.738Z,99664.38
2023-04-01T05:11:40.022Z,99669.47
2023-04-01T05:14:06.717Z,99667.69
2023-04-01T05:16:34.252Z,99666.69
2023-04-01T05:19:01.081Z,99673.59
2023-04-01T05:21:27.547Z,99672.44
2023-04-01T05:23:55.965Z,99674.06
2023-04-01T05:26:24.560Z,99677.88
2023-04-01T05:28:51.012Z,99688.88
2023-04-01T05:31:17.778Z,99684.97
2023-04-01T05:33:47.101Z,99693.47
2023-04-01T05:36:16.089Z,99699.09
2023-04-01T05:38:44.085Z,99699.81
2023-04-01T05:41:12.521Z,99697.88
2023-04-01T05:43:43.205Z,99699.19
2023-04-01T05:46:44.467Z,99707.13
2023-04-01T05:49:17.342Z,99714.38
2023-04-01T05:51:43.798Z,99713.41
2023-04-01T05:54:10.549Z,99715.72
2023-04-01T05:56:37.912Z,99716.38
2023-04-01T05:59:04.403Z,99716.72
2023-04-01T06:01:31.008Z,99725.59
2023-04-01T06:03:57.789Z,99734.16
2023-04-01T06:06:28.481Z,99727.72
2023-04-01T06:09:16.260Z,99737.91
2023-04-01T06:12:25.203Z,99741.38
2023-04-01T06:15:31.515Z,99746.94
2023-04-01T06:18:17.036Z,99746.25
2023-04-01T06:20:56.178Z,99744.09
2023-04-01T06:23:25.611Z,99751.97
2023-04-01T06:26:07.822Z,99754.47
2023-04-01T06:29:07.552Z,99763.03
2023-04-01T06:31:57.307Z,99761.00
2023-04-01T06:34:45.557Z,99772.19
2023-04-01T06:37:30.103Z,99771.78
2023-04-01T06:40:02.811Z,99779.72
2023-04-01T06:42:36.580Z,99779.66
2023-04-01T06:45:28.077Z,99784.44
2023-04-01T06:48:38.462Z,99788.16
2023-04-01T06:52:13.424Z,99786.59
2023-04-01T06:55:22.363Z,99795.38
2023-04-01T06:58:24.048Z,99803.91
2023-04-01T07:00:55.358Z,99807.38
2023-04-01T07:03:33.932Z,99809.81
2023-04-01T07:06:10.238Z,99809.84
2023-04-01T07:08:44.090Z,99810.53
2023-04-01T07:11:17.861Z,99818.13
2023-04-01T07:14:08.084Z,99827.78
2023-04-01T07:16:52.733Z,99832.28
2023-04-01T07:19:31.055Z,99841.28
2023-04-01T07:22:18.759Z,99835.38
2023-04-01T07:25:13.977Z,99848.19
2023-04-01T07:27:42.890Z,99844.28
2023-04-01T07:30:18.226Z,99856.38
2023-04-01T07:33:06.484Z,99855.53
2023-04-01T07:35:47.982Z,99860.91
2023-04-01T07:38:23.669Z,99866.16
2023-04-01T07:41:07.044Z,99870.59
2023-04-01T07:43:40.111Z,99873.38
2023-04-01T07:46:43.709Z,99882.94
2023-04-01T07:49:18.232Z,99886.44
2023-04-01T07:51:53.458Z,99894.69
2023-04-01T07:54:31.497Z,99898.75
2023-04-01T07:57:31.175Z,99904.75
2023-04-01T08:00:26.282Z,99900.34
2023-04-01T08:03:41.976Z,99916.94
2023-04-01T08:06:33.411Z,99918.28
2023-04-01T08:09:20.313Z,99933.28
2023-04-01T08:12:43.925Z,99930.38
2023-04-01T08:16:25.463Z,99935.63
2023-04-01T08:19:14.980Z,99932.00
2023-04-01T08:21:46.223Z,99948.19
2023-04-01T08:24:27.886Z,99955.78
2023-04-01T08:27:02.004Z,99953.53
2023-04-01T08:29:56.746Z,99953.38
2023-04-01T08:32:30.501Z,99966.38
2023-04-01T08:35:10.962Z,99963.66
2023-04-01T08:37:42.156Z,99982.56
2023-04-01T08:40:52.003Z,99983.41
2023-04-01T08:43:37.197Z,99981.69
2023-04-01T08:46:22.592Z,99988.34
2023-04-01T08:49:03.792Z,99980.63
2023-04-01T08:51:49.681Z,100003.03
2023-04-01T08:54:41.304Z,100012.06
2023-04-01T08:57:41.717Z,100005.22
2023-04-01T09:00:35.098Z,100004.47
2023-04-01T09:03:44.750Z,100004.97
2023-04-01T09:06:27.805Z,100007.22
2023-04-01T09:09:29.038Z,100019.28
2023-04-01T09:12:22.718Z,100016.41
2023-04-01T09:15:02.694Z,100029.88
2023-04-01T09:17:49.919Z,100034.41
2023-04-01T09:20:20.134Z,100027.81
2023-04-01T09:22:55.884Z,100021.78
2023-04-01T09:25:34.690Z,100036.34
2023-04-01T09:28:11.487Z,100036.66
2023-04-01T09:31:07.616Z,100042.59
2023-04-01T09:34:16.013Z,100052.56
2023-04-01T09:37:20.124Z,100056.31
2023-04-01T09:40:26.469Z,100063.66
2023-04-01T09:43:17.659Z,100067.84
2023-04-01T09:45:59.573Z,100068.34
2023-04-01T09:48:55.771Z,100079.75
2023-04-01T09:51:53.399Z,100073.72
2023-04-01T09:54:42.423Z,100077.56
2023-04-01T09:57:40.939Z,100089.63
2023-04-01T10:00:33.894Z,100092.06
2023-04-01T10:03:37.578Z,100100.47
2023-04-01T10:06:13.200Z,100096.72
2023-04-01T10:08:52.903Z,100097.00
2023-04-01T10:11:24.826Z,100104.78
2023-04-01T10:14:22.149Z,100108.16
2023-04-01T10:17:17.251Z,100108.03
2023-04-01T10:20:03.425Z,100114.88
2023-04-01T10:22:50.923Z,100113.97
2023-04-01T10:25:23.291Z,100121.94
2023-04-01T10:28:07.106Z,100124.94
2023-04-01T10:31:02.570Z,100124.56
2023-04-01T10:33:46.744Z,100130.13
2023-04-01T10:36:34.759Z,100138.53
2023-04-01T10:39:23.381Z,100134.47
2023-04-01T10:42:17.189Z,100141.88
2023-04-01T10:45:41.928Z,100144.56
2023-04-01T10:48:30.038Z,100142.44
2023-04-01T10:51:10.241Z,100153.84
2023-04-01T10:53:55.724Z,100159.28
2023-04-01T10:56:59.585Z,100154.50
2023-04-01T11:00:19.843Z,100164.63
2023-04-01T11:03:21.877Z,100164.53
2023-04-01T11:06:32.980Z,100178.81
2023-04-01T11:09:18.643Z,100174.03
2023-04-01T11:12:05.172Z,100181.59
2023-04-01T11:15:19.190Z,100186.97
2023-04-01T11:18:18.727Z,100196.13
2023-04-01T11:21:25.460Z,100199.44
2023-04-01T11:24:24.315Z,100194.28
2023-04-01T11:27:39.629Z,100200.16
2023-04-01T11:30:19.622Z,100206.91
2023-04-01T11:33:20.905Z,100205.69
2023-04-01T11:35:47.644Z,100213.59
2023-04-01T11:38:33.861Z,100221.19
2023-04-01T11:41:33.750Z,100222.72
2023-04-01T11:44:25.324Z,100235.16
2023-04-01T11:47:23.735Z,100227.38
2023-04-01T11:50:12.641Z,100229.13
2023-04-01T11:52:56.204Z,100234.81
2023-04-01T11:55:29.519Z,100238.16
2023-04-01T11:58:02.080Z,100241.19
2023-04-01T12:00:51.965Z,100238.72
2023-04-01T12:03:38.559Z,100258.84
2023-04-01T12:06:08.182Z,100259.38
2023-04-01T12:08:57.793Z,100259.38
2023-04-01T12:11:36.919Z,100271.66
2023-04-01T12:14:31.475Z,100272.63
2023-04-01T12:17:03.332Z,100276.34
2023-04-01T12:19:52.846Z,100287.69
2023-04-01T12:22:43.676Z,100290.06
2023-04-01T12:25:51.528Z,100289.00
2023-04-01T12:28:21.198Z,100300.34
2023-04-01T12:30:56.948Z,100310.31
2023-04-01T12:33:38.693Z,100314.75
2023-04-01T12:36:24.802Z,100318.63
2023-04-01T12:39:22.245Z,100308.69
2023-04-01T12:42:00.907Z,100326.50
2023-04-01T12:44:37.044Z,100323.72
2023-04-01T12:47:27.510Z,100328.31
2023-04-01T12:50:31.278Z,100333.56
2023-04-01T12:53:18.764Z,100334.25
2023-04-01T12:55:50.333Z,100342.53
2023-04-01T12:58:36.253Z,100350.97
2023-04-01T13:01:23.374Z,100354.53
2023-04-01T13:04:41.443Z,100358.41
2023-04-01T13:07:16.974Z,100366.41
2023-04-01T13:09:52.485Z,100369.75
2023-04-01T13:12:24.842Z,100369.06
2023-04-01T13:15:08.706Z,100375.81
2023-04-01T13:17:48.934Z,100379.97
2023-04-01T13:20:30.051Z,100384.94
2023-04-01T13:23:40.762Z,100392.25
2023-04-01T13:26:38.156Z,100391.25
2023-04-01T13:29:19.145Z,100398.59
2023-04-01T13:31:51.808Z,100403.84
2023-04-01T13:34:25.952Z,100407.00
2023-04-01T13:37:02.447Z,100408.69
2023-04-01T13:39:59.670Z,100424.69
2023-04-01T13:42:36.716Z,100426.63
2023-04-01T13:45:27.723Z,100417.22
2023-04-01T13:48:30.905Z,100438.91
2023-04-01T13:51:16.366Z,100444.44
2023-04-01T13:54:04.400Z,100448.16
2023-04-01T13:56:46.524Z,100446.50
2023-04-01T13:59:48.309Z,100457.28
2023-04-01T14:02:33.517Z,100455.47
2023-04-01T14:05:24.378Z,100458.47
2023-04-01T14:08:15.729Z,100458.78
2023-04-01T14:11:08.244Z,100461.38
2023-04-01T14:13:53.675Z,100474.22
2023-04-01T14:16:30.960Z,100481.28
2023-04-01T14:19:09.931Z,100482.69
2023-04-01T14:21:44.558Z,100483.78
2023-04-01T14:24:36.983Z,100495.09
2023-04-01T14:27:37.421Z,100487.88
2023-04-01T14:30:13.171Z,100499.44
2023-04-01T14:33:17.662Z,100513.63
2023-04-01T14:36:24.958Z,100510.44
2023-04-01T14:39:08.988Z,100507.97
2023-04-01T14:41:50.420Z,100509.91
2023-04-01T14:44:52.985Z,100517.59
2023-04-01T14:47:44.914Z,100523.72
2023-04-01T14:50:18.292Z,100521.19
2023-04-01T14:52:54.827Z,100524.19
2023-04-01T14:55:42.011Z,100528.88
2023-04-01T14:58:20.326Z,100540.34
2023-04-01T15:00:58.990Z,100545.13
2023-04-01T15:03:45.517Z,100550.69
2023-04-01T15:06:39.187Z,100549.31
2023-04-01T15:09:33.740Z,100542.84
2023-04-01T15:12:18.532Z,100565.47
2023-04-01T15:14:54.314Z,100572.63
2023-04-01T15:17:32.433Z,100578.13
2023-04-01T15:20:17.146Z,100584.06
2023-04-01T15:23:02.922Z,100591.44
2023-04-01T15:25:44.124Z,100589.69
2023-04-01T15:28:36.659Z,100589.06
2023-04-01T15:31:23.398Z,100598.84
2023-04-01T15:34:23.814Z,100594.25
2023-04-01T15:37:17.649Z,100606.44
2023-04-01T15:39:55.686Z,100611.69
2023-04-01T15:42:48.289Z,100616.50
2023-04-01T15:45:34.404Z,100619.84
2023-04-01T15:48:27.214Z,100622.94
2023-04-01T15:51:09.618Z,100627.09
2023-04-01T15:54:17.217Z,100635.44
2023-04-01T15:56:55.041Z,100642.28
2023-04-01T15:59:45.402Z,100638.97
2023-04-01T16:02:34.115Z,100652.75
2023-04-01T16:05:40.313Z,100659.31
2023-04-01T16:08:34.713Z,100661.94
2023-04-01T16:11:15.879Z,100660.66
2023-04-01T16:14:01.048Z,100669.28
2023-04-01T16:17:08.134Z,100681.41
2023-04-01T16:19:56.258Z,100686.19
2023-04-01T16:22:57.874Z,100684.03
2023-04-01T16:25:45.017Z,100694.38
2023-04-01T16:28:25.496Z,100695.47
2023-04-01T16:31:00.949Z,100709.97
2023-04-01T16:33:55.806Z,100705.19
2023-04-01T16:37:01.217Z,100717.81
2023-04-01T16:39:30.361Z,100721.06
2023-04-01T16:42:20.697Z,100726.16
2023-04-01T16:45:03.822Z,100741.84
2023-04-01T16:47:40.657Z,100744.00
2023-04-01T16:50:14.636Z,100746.50
2023-04-01T16:53:00.596Z,100748.91
2023-04-01T16:55:48.678Z,100750.69
2023-04-01T16:58:26.417Z,100770.06
2023-04-01T17:01:02.521Z,100772.22
2023-04-01T17:03:42.464Z,100766.38
2023-04-01T17:06:34.220Z,100779.34
2023-04-01T17:09:26.419Z,100783.75
2023-04-01T17:12:17.841Z,100790.66
2023-04-01T17:15:03.157Z,100798.28
2023-04-01T17:17:47.573Z,100807.53
2023-04-01T17:20:21.779Z,100818.09
2023-04-01T17:23:01.738Z,100811.91
2023-04-01T17:25:53.946Z,100829.88
2023-04-01T17:28:48.132Z,100836.44
2023-04-01T17:31:26.966Z,100829.16
2023-04-01T17:34:04.534Z,100842.47
2023-04-01T17:36:53.728Z,100849.84
2023-04-01T17:39:46.238Z,100859.13
2023-04-01T17:42:20.396Z,100856.06
2023-04-01T17:45:17.407Z,100869.44
2023-04-01T17:48:06.211Z,100872.66
2023-04-01T17:50:59.539Z,100873.34
2023-04-01T17:53:34.460Z,100878.38
2023-04-01T17:56:17.696Z,100886.66
2023-04-01T17:58:51.644Z,100886.19
2023-04-01T18:01:39.844Z,100904.97
2023-04-01T18:04:09.212Z,100912.97
2023-04-01T18:07:03.690Z,100919.00
2023-04-01T18:10:01.465Z,100928.97
2023-04-01T18:12:57.632Z,100938.97
2023-04-01T18:15:36.214Z,100943.16
2023-04-01T18:18:27.358Z,100940.44
2023-04-01T18:21:05.861Z,100953.50
2023-04-01T18:23:52.134Z,100956.59
2023-04-01T18:26:26.601Z,100962.31
2023-04-01T18:28:59.635Z,100976.94
2023-04-01T18:31:33.681Z,100969.44
2023-04-01T18:34:18.546Z,100978.44
2023-04-01T18:36:56.389Z,100984.91
2023-04-01T18:39:37.877Z,100993.50
2023-04-01T18:42:21.300Z,100999.34
2023-04-01T18:44:52.440Z,101016.75
2023-04-01T18:47:48.063Z,101010.50
2023-04-01T18:50:30.008Z,101021.88
2023-04-01T18:53:35.024Z,101041.13
2023-04-01T18:56:04.723Z,101038.28
2023-04-01T18:58:47.992Z,101042.91
2023-04-01T19:01:35.791Z,101040.94
2023-04-01T19:04:27.124Z,101047.97
2023-04-01T19:06:57.960Z,101047.97
2023-04-01T19:09:31.448Z,101058.22
2023-04-01T19:12:20.828Z,101068.16
2023-04-01T19:15:00.884Z,101069.72
2023-04-01T19:17:48.126Z,101069.09
2023-04-01T19:20:24.733Z,101078.31
2023-04-01T19:23:22.352Z,101088.47
2023-04-01T19:26:01.392Z,101094.59
2023-04-01T19:28:40.147Z,101095.25
2023-04-01T19:31:38.695Z,101107.09
2023-04-01T19:34:35.025Z,101114.94
2023-04-01T19:37:26.875Z,101110.31
2023-04-01T19:40:35.980Z,101121.63
2023-04-01T19:43:23.555Z,101124.97
2023-04-01T19:45:59.024Z,101134.38
2023-04-01T19:48:39.000Z,101129.56
2023-04-01T19:51:11.989Z,101138.16
2023-04-01T19:53:57.592Z,101144.41
2023-04-01T19:56:28.519Z,101152.34
2023-04-01T19:59:21.826Z,101159.91
2023-04-01T20:02:22.049Z,101162.72
2023-04-01T20:04:55.449Z,101161.75
2023-04-01T20:07:32.179Z,101178.16
2023-04-01T20:10:09.155Z,101181.47
2023-04-01T20:12:54.052Z,101180.63
2023-04-01T20:15:43.977Z,101203.84
2023-04-01T20:18:40.392Z,101202.16
2023-04-01T20:21:16.161Z,101206.28
2023-04-01T20:24:02.889Z,101214.75
2023-04-01T20:26:36.473Z,101217.06
2023-04-01T20:29:21.791Z,101221.34
2023-04-01T20:32:27.337Z,101230.47
2023-04-01T20:35:15.587Z,101239.34
2023-04-01T20:37:55.728Z,101240.19
2023-04-01T20:40:36.270Z,101247.81
2023-04-01T20:43:14.082Z,101254.75
2023-04-01T20:45:57.444Z,101259.88
2023-04-01T20:48:45.300Z,101267.53
2023-04-01T20:51:16.412Z,101270.44
2023-04-01T20:53:51.100Z,101287.31
2023-04-01T20:56:17.530Z,101284.81
2023-04-01T20:59:17.627Z,101293.41
2023-04-01T21:02:15.067Z,101290.34
2023-04-01T21:05:23.515Z,101302.06
2023-04-01T21:08:25.418Z,101307.00
2023-04-01T21:11:01.345Z,101310.72
2023-04-01T21:13:57.744Z,101310.44
2023-04-01T21:16:31.641Z,101327.94
2023-04-01T21:19:22.367Z,101323.47
2023-04-01T21:22:08.127Z,101327.63
2023-04-01T21:24:50.071Z,101330.06
2023-04-01T21:27:35.546Z,101330.88
2023-04-01T21:30:29.506Z,101337.38
2023-04-01T21:33:11.674Z,101342.72
2023-04-01T21:35:57.127Z,101351.00
2023-04-01T21:38:53.330Z,101357.06
2023-04-01T21:41:57.325Z,101353.72
2023-04-01T21:44:49.762Z,101364.66
2023-04-01T21:48:03.672Z,101369.22
2023-04-01T21:51:02.515Z,101380.25
2023-04-01T21:53:44.196Z,101381.94
2023-04-01T21:56:19.634Z,101383.03
2023-04-01T21:59:04.131Z,101395.81
2023-04-01T22:01:59.976Z,101392.78
2023-04-01T22:04:53.796Z,101399.94
2023-04-01T22:07:24.542Z,101409.09
2023-04-01T22:09:55.740Z,101416.69
2023-04-01T22:12:39.408Z,101419.03
2023-04-01T22:15:22.086Z,101427.84
2023-04-01T22:18:15.025Z,101428.22
2023-04-01T22:20:51.230Z,101436.50
2023-04-01T22:23:34.030Z,101439.31
2023-04-01T22:26:28.045Z,101446.94
2023-04-01T22:29:08.111Z,101441.91
2023-04-01T22:31:48.361Z,101458.22
2023-04-01T22:34:33.972Z,101461.06
2023-04-01T22:37:19.384Z,101468.13
2023-04-01T22:40:08.374Z,101470.13
2023-04-01T22:42:46.475Z,101468.75
2023-04-01T22:45:59.330Z,101474.25
2023-04-01T22:48:40.549Z,101482.34
2023-04-01T22:51:13.705Z,101484.41
2023-04-01T22:53:56.328Z,101492.47
2023-04-01T22:56:33.642Z,101490.53
2023-04-01T22:59:09.550Z,101489.59
2023-04-01T23:01:46.414Z,101495.16
2023-04-01T23:04:18.353Z,101504.72
2023-04-01T23:06:51.201Z,101505.59
2023-04-01T23:09:17.606Z,101515.50
2023-04-01T23:12:01.607Z,101513.78
2023-04-01T23:14:47.147Z,101520.69
2023-04-01T23:17:45.937Z,101524.28
2023-04-01T23:20:23.890Z,101529.41
2023-04-01T23:23:01.600Z,101529.56
2023-04-01T23:25:52.923Z,101539.38
2023-04-01T23:28:47.495Z,101546.69
2023-04-01T23:31:37.109Z,101555.22
2023-04-01T23:34:12.768Z,101557.75
2023-04-01T23:36:44.906Z,101556.50
2023-04-01T23:39:29.627Z,101558.91
2023-04-01T23:42:00.504Z,101573.88
2023-04-01T23:44:29.109Z,101570.84
2023-04-01T23:46:58.023Z,101572.72
2023-04-01T23:49:45.105Z,101572.00
2023-04-01T23:52:30.721Z,101581.53
2023-04-01T23:55:02.640Z,101586.19
2023-04-01T23:57:34.395Z,101591.16
